sensor_id;sensor_type;location;lat;lon;timestamp;P1;durP1;ratioP1;P2;durP2;ratioP2
57107;SDS011;42987;52.916;6.542;2022-12-07T00:01:25;7.95;;;2.10;;
57107;SDS011;42987;52.916;6.542;2022-12-07T00:03:53;18.27;;;3.35;;
57107;SDS011;42987;52.916;6.542;2022-12-07T00:06:22;10.85;;;2.60;;
57107;SDS011;42987;52.916;6.542;2022-12-07T00:08:48;10.35;;;2.35;;
57107;SDS011;42987;52.916;6.542;2022-12-07T00:11:15;12.60;;;3.20;;
57107;SDS011;42987;52.916;6.542;2022-12-07T00:13:42;13.30;;;2.60;;
57107;SDS011;42987;52.916;6.542;2022-12-07T00:16:11;7.70;;;2.08;;
57107;SDS011;42987;52.916;6.542;2022-12-07T00:18:38;11.77;;;2.60;;
57107;SDS011;42987;52.916;6.542;2022-12-07T00:21:06;7.80;;;2.10;;
57107;SDS011;42987;52.916;6.542;2022-12-07T00:23:40;14.93;;;2.75;;
57107;SDS011;42987;52.916;6.542;2022-12-07T00:26:09;16.17;;;3.53;;
57107;SDS011;42987;52.916;6.542;2022-12-07T00:28:36;11.18;;;2.53;;
57107;SDS011;42987;52.916;6.542;2022-12-07T00:31:06;12.38;;;2.75;;
57107;SDS011;42987;52.916;6.542;2022-12-07T00:33:33;11.25;;;2.67;;
57107;SDS011;42987;52.916;6.542;2022-12-07T00:36:00;10.73;;;2.83;;
57107;SDS011;42987;52.916;6.542;2022-12-07T00:38:30;12.70;;;2.72;;
57107;SDS011;42987;52.916;6.542;2022-12-07T00:40:58;12.85;;;2.42;;
57107;SDS011;42987;52.916;6.542;2022-12-07T00:43:25;12.20;;;2.67;;
57107;SDS011;42987;52.916;6.542;2022-12-07T00:45:52;11.82;;;2.00;;
57107;SDS011;42987;52.916;6.542;2022-12-07T00:48:18;13.07;;;2.78;;
57107;SDS011;42987;52.916;6.542;2022-12-07T00:50:44;12.23;;;2.85;;
57107;SDS011;42987;52.916;6.542;2022-12-07T00:53:10;15.40;;;2.95;;
57107;SDS011;42987;52.916;6.542;2022-12-07T00:55:36;11.47;;;2.73;;
57107;SDS011;42987;52.916;6.542;2022-12-07T00:58:02;10.65;;;3.10;;
57107;SDS011;42987;52.916;6.542;2022-12-07T01:00:31;9.50;;;2.72;;
57107;SDS011;42987;52.916;6.542;2022-12-07T01:02:59;13.67;;;2.77;;
57107;SDS011;42987;52.916;6.542;2022-12-07T01:05:25;14.68;;;3.42;;
57107;SDS011;42987;52.916;6.542;2022-12-07T01:07:51;15.40;;;3.60;;
57107;SDS011;42987;52.916;6.542;2022-12-07T01:10:17;14.80;;;2.42;;
57107;SDS011;42987;52.916;6.542;2022-12-07T01:12:42;11.13;;;3.20;;
57107;SDS011;42987;52.916;6.542;2022-12-07T01:15:08;12.98;;;3.70;;
57107;SDS011;42987;52.916;6.542;2022-12-07T01:17:34;12.93;;;3.15;;
57107;SDS011;42987;52.916;6.542;2022-12-07T01:20:00;12.07;;;2.60;;
57107;SDS011;42987;52.916;6.542;2022-12-07T01:22:27;10.68;;;2.80;;
57107;SDS011;42987;52.916;6.542;2022-12-07T01:24:52;13.13;;;2.75;;
57107;SDS011;42987;52.916;6.542;2022-12-07T01:27:18;12.98;;;2.60;;
57107;SDS011;42987;52.916;6.542;2022-12-07T01:29:44;13.13;;;2.78;;
57107;SDS011;42987;52.916;6.542;2022-12-07T01:32:10;14.65;;;3.05;;
57107;SDS011;42987;52.916;6.542;2022-12-07T01:34:36;11.07;;;2.80;;
57107;SDS011;42987;52.916;6.542;2022-12-07T01:37:02;10.80;;;2.50;;
57107;SDS011;42987;52.916;6.542;2022-12-07T01:39:30;10.05;;;2.58;;
57107;SDS011;42987;52.916;6.542;2022-12-07T01:41:57;11.95;;;2.33;;
57107;SDS011;42987;52.916;6.542;2022-12-07T01:46:50;14.68;;;2.42;;
57107;SDS011;42987;52.916;6.542;2022-12-07T01:49:21;11.10;;;2.25;;
57107;SDS011;42987;52.916;6.542;2022-12-07T01:52:42;11.82;;;2.47;;
57107;SDS011;42987;52.916;6.542;2022-12-07T01:54:53;11.25;;;2.35;;
57107;SDS011;42987;52.916;6.542;2022-12-07T01:57:22;11.45;;;2.35;;
57107;SDS011;42987;52.916;6.542;2022-12-07T01:59:48;13.13;;;2.20;;
57107;SDS011;42987;52.916;6.542;2022-12-07T02:02:18;8.45;;;2.15;;
57107;SDS011;42987;52.916;6.542;2022-12-07T02:04:47;11.40;;;1.75;;
57107;SDS011;42987;52.916;6.542;2022-12-07T02:07:15;11.05;;;2.33;;
57107;SDS011;42987;52.916;6.542;2022-12-07T02:09:45;10.15;;;1.85;;
57107;SDS011;42987;52.916;6.542;2022-12-07T02:12:11;12.10;;;1.77;;
57107;SDS011;42987;52.916;6.542;2022-12-07T02:14:37;14.73;;;2.38;;
57107;SDS011;42987;52.916;6.542;2022-12-07T02:28:05;11.05;;;1.70;;
57107;SDS011;42987;52.916;6.542;2022-12-07T02:30:40;9.55;;;2.20;;
57107;SDS011;42987;52.916;6.542;2022-12-07T02:33:14;9.57;;;1.92;;
57107;SDS011;42987;52.916;6.542;2022-12-07T02:35:55;13.48;;;1.80;;
57107;SDS011;42987;52.916;6.542;2022-12-07T02:38:51;12.95;;;1.92;;
57107;SDS011;42987;52.916;6.542;2022-12-07T02:41:36;9.88;;;2.05;;
57107;SDS011;42987;52.916;6.542;2022-12-07T02:44:17;8.05;;;1.60;;
57107;SDS011;42987;52.916;6.542;2022-12-07T02:46:50;9.73;;;1.90;;
57107;SDS011;42987;52.916;6.542;2022-12-07T02:49:24;8.60;;;1.60;;
57107;SDS011;42987;52.916;6.542;2022-12-07T02:51:52;6.90;;;1.52;;
57107;SDS011;42987;52.916;6.542;2022-12-07T02:54:19;8.50;;;1.48;;
57107;SDS011;42987;52.916;6.542;2022-12-07T02:56:48;11.07;;;1.67;;
57107;SDS011;42987;52.916;6.542;2022-12-07T03:08:00;10.93;;;2.38;;
57107;SDS011;42987;52.916;6.542;2022-12-07T03:16:18;12.77;;;2.03;;
57107;SDS011;42987;52.916;6.542;2022-12-07T03:21:27;9.00;;;2.03;;
57107;SDS011;42987;52.916;6.542;2022-12-07T03:23:59;11.48;;;1.90;;
57107;SDS011;42987;52.916;6.542;2022-12-07T03:26:36;11.90;;;2.00;;
57107;SDS011;42987;52.916;6.542;2022-12-07T03:30:07;10.57;;;1.90;;
57107;SDS011;42987;52.916;6.542;2022-12-07T03:32:07;9.50;;;1.75;;
57107;SDS011;42987;52.916;6.542;2022-12-07T03:37:17;12.00;;;2.17;;
57107;SDS011;42987;52.916;6.542;2022-12-07T03:42:22;11.90;;;1.75;;
57107;SDS011;42987;52.916;6.542;2022-12-07T03:44:48;10.65;;;1.70;;
57107;SDS011;42987;52.916;6.542;2022-12-07T03:50:02;7.60;;;1.55;;
57107;SDS011;42987;52.916;6.542;2022-12-07T03:52:56;11.23;;;2.05;;
57107;SDS011;42987;52.916;6.542;2022-12-07T03:55:34;8.05;;;1.42;;
57107;SDS011;42987;52.916;6.542;2022-12-07T03:58:09;9.05;;;1.90;;
57107;SDS011;42987;52.916;6.542;2022-12-07T04:00:38;12.65;;;1.80;;
57107;SDS011;42987;52.916;6.542;2022-12-07T04:03:07;13.77;;;2.42;;
57107;SDS011;42987;52.916;6.542;2022-12-07T04:05:33;12.80;;;2.22;;
57107;SDS011;42987;52.916;6.542;2022-12-07T04:07:59;12.48;;;1.73;;
57107;SDS011;42987;52.916;6.542;2022-12-07T04:10:25;11.82;;;1.70;;
57107;SDS011;42987;52.916;6.542;2022-12-07T04:12:50;12.73;;;1.80;;
57107;SDS011;42987;52.916;6.542;2022-12-07T04:15:16;10.52;;;1.80;;
57107;SDS011;42987;52.916;6.542;2022-12-07T04:17:42;9.90;;;1.77;;
57107;SDS011;42987;52.916;6.542;2022-12-07T04:20:08;8.68;;;1.30;;
57107;SDS011;42987;52.916;6.542;2022-12-07T04:22:35;9.05;;;1.42;;
57107;SDS011;42987;52.916;6.542;2022-12-07T04:25:01;7.32;;;1.50;;
57107;SDS011;42987;52.916;6.542;2022-12-07T04:27:27;15.48;;;2.00;;
57107;SDS011;42987;52.916;6.542;2022-12-07T04:29:53;12.27;;;1.90;;
57107;SDS011;42987;52.916;6.542;2022-12-07T04:32:20;8.82;;;1.27;;
57107;SDS011;42987;52.916;6.542;2022-12-07T04:34:45;10.90;;;1.80;;
57107;SDS011;42987;52.916;6.542;2022-12-07T04:37:11;11.52;;;1.77;;
57107;SDS011;42987;52.916;6.542;2022-12-07T04:39:37;13.48;;;2.13;;
57107;SDS011;42987;52.916;6.542;2022-12-07T04:42:03;12.97;;;1.67;;
57107;SDS011;42987;52.916;6.542;2022-12-07T04:44:29;11.88;;;1.80;;
57107;SDS011;42987;52.916;6.542;2022-12-07T04:46:55;9.05;;;1.65;;
57107;SDS011;42987;52.916;6.542;2022-12-07T04:49:22;10.50;;;1.50;;
57107;SDS011;42987;52.916;6.542;2022-12-07T04:51:49;8.32;;;1.70;;
57107;SDS011;42987;52.916;6.542;2022-12-07T04:54:16;17.23;;;2.08;;
57107;SDS011;42987;52.916;6.542;2022-12-07T04:56:42;13.70;;;1.92;;
57107;SDS011;42987;52.916;6.542;2022-12-07T04:59:09;15.43;;;1.90;;
57107;SDS011;42987;52.916;6.542;2022-12-07T05:01:39;12.93;;;2.50;;
57107;SDS011;42987;52.916;6.542;2022-12-07T05:04:08;10.00;;;1.75;;
57107;SDS011;42987;52.916;6.542;2022-12-07T05:06:35;9.85;;;1.50;;
57107;SDS011;42987;52.916;6.542;2022-12-07T05:09:01;12.88;;;1.88;;
57107;SDS011;42987;52.916;6.542;2022-12-07T05:11:27;9.48;;;1.92;;
57107;SDS011;42987;52.916;6.542;2022-12-07T05:14:24;8.48;;;1.70;;
57107;SDS011;42987;52.916;6.542;2022-12-07T05:16:52;7.70;;;1.40;;
57107;SDS011;42987;52.916;6.542;2022-12-07T05:19:18;15.35;;;2.63;;
57107;SDS011;42987;52.916;6.542;2022-12-07T05:21:45;17.30;;;2.38;;
57107;SDS011;42987;52.916;6.542;2022-12-07T05:24:11;15.43;;;2.00;;
57107;SDS011;42987;52.916;6.542;2022-12-07T05:26:39;8.43;;;1.40;;
57107;SDS011;42987;52.916;6.542;2022-12-07T05:29:05;12.57;;;1.60;;
57107;SDS011;42987;52.916;6.542;2022-12-07T05:31:32;11.65;;;2.03;;
57107;SDS011;42987;52.916;6.542;2022-12-07T05:33:59;13.30;;;2.15;;
57107;SDS011;42987;52.916;6.542;2022-12-07T05:36:24;11.60;;;2.33;;
57107;SDS011;42987;52.916;6.542;2022-12-07T05:38:50;9.93;;;1.67;;
57107;SDS011;42987;52.916;6.542;2022-12-07T05:41:17;13.38;;;1.92;;
57107;SDS011;42987;52.916;6.542;2022-12-07T05:44:02;10.70;;;1.77;;
57107;SDS011;42987;52.916;6.542;2022-12-07T05:46:32;12.32;;;1.95;;
57107;SDS011;42987;52.916;6.542;2022-12-07T05:48:58;9.65;;;1.38;;
57107;SDS011;42987;52.916;6.542;2022-12-07T05:51:27;9.93;;;1.55;;
57107;SDS011;42987;52.916;6.542;2022-12-07T05:53:54;9.07;;;1.70;;
57107;SDS011;42987;52.916;6.542;2022-12-07T05:56:19;11.73;;;1.80;;
57107;SDS011;42987;52.916;6.542;2022-12-07T05:58:45;13.27;;;1.80;;
57107;SDS011;42987;52.916;6.542;2022-12-07T06:01:29;13.47;;;1.80;;
57107;SDS011;42987;52.916;6.542;2022-12-07T06:03:55;11.73;;;2.00;;
57107;SDS011;42987;52.916;6.542;2022-12-07T06:06:21;8.17;;;1.77;;
57107;SDS011;42987;52.916;6.542;2022-12-07T06:08:47;15.98;;;2.00;;
57107;SDS011;42987;52.916;6.542;2022-12-07T06:11:13;8.93;;;1.77;;
57107;SDS011;42987;52.916;6.542;2022-12-07T06:13:57;10.43;;;1.83;;
57107;SDS011;42987;52.916;6.542;2022-12-07T06:16:23;14.27;;;2.33;;
57107;SDS011;42987;52.916;6.542;2022-12-07T06:18:48;10.83;;;1.63;;
57107;SDS011;42987;52.916;6.542;2022-12-07T06:21:14;12.00;;;1.57;;
57107;SDS011;42987;52.916;6.542;2022-12-07T06:23:40;11.33;;;1.70;;
57107;SDS011;42987;52.916;6.542;2022-12-07T06:26:06;10.63;;;1.97;;
57107;SDS011;42987;52.916;6.542;2022-12-07T06:28:31;13.43;;;2.13;;
57107;SDS011;42987;52.916;6.542;2022-12-07T06:30:58;12.87;;;1.90;;
57107;SDS011;42987;52.916;6.542;2022-12-07T06:33:25;12.27;;;1.97;;
57107;SDS011;42987;52.916;6.542;2022-12-07T06:35:51;14.70;;;1.83;;
57107;SDS011;42987;52.916;6.542;2022-12-07T06:38:17;13.27;;;2.38;;
57107;SDS011;42987;52.916;6.542;2022-12-07T06:40:42;11.77;;;1.97;;
57107;SDS011;42987;52.916;6.542;2022-12-07T06:43:08;10.63;;;1.92;;
57107;SDS011;42987;52.916;6.542;2022-12-07T06:45:34;11.20;;;2.20;;
57107;SDS011;42987;52.916;6.542;2022-12-07T06:48:00;14.10;;;1.60;;
57107;SDS011;42987;52.916;6.542;2022-12-07T06:50:29;12.30;;;1.80;;
57107;SDS011;42987;52.916;6.542;2022-12-07T06:52:55;12.70;;;4.40;;
57107;SDS011;42987;52.916;6.542;2022-12-07T06:55:20;11.73;;;3.10;;
57107;SDS011;42987;52.916;6.542;2022-12-07T06:57:46;14.37;;;2.13;;
57107;SDS011;42987;52.916;6.542;2022-12-07T07:00:12;9.80;;;1.87;;
57107;SDS011;42987;52.916;6.542;2022-12-07T07:02:39;14.97;;;2.30;;
57107;SDS011;42987;52.916;6.542;2022-12-07T07:05:04;7.78;;;1.75;;
57107;SDS011;42987;52.916;6.542;2022-12-07T07:07:30;13.27;;;1.67;;
57107;SDS011;42987;52.916;6.542;2022-12-07T07:09:56;10.07;;;2.60;;
57107;SDS011;42987;52.916;6.542;2022-12-07T07:12:22;12.57;;;1.92;;
57107;SDS011;42987;52.916;6.542;2022-12-07T07:14:48;16.30;;;2.13;;
57107;SDS011;42987;52.916;6.542;2022-12-07T07:17:14;13.27;;;2.70;;
57107;SDS011;42987;52.916;6.542;2022-12-07T07:19:39;10.47;;;2.00;;
57107;SDS011;42987;52.916;6.542;2022-12-07T07:22:05;10.50;;;1.90;;
57107;SDS011;42987;52.916;6.542;2022-12-07T07:24:31;12.03;;;1.87;;
57107;SDS011;42987;52.916;6.542;2022-12-07T07:26:57;8.57;;;1.77;;
57107;SDS011;42987;52.916;6.542;2022-12-07T07:29:22;12.93;;;2.33;;
57107;SDS011;42987;52.916;6.542;2022-12-07T07:31:52;13.15;;;2.50;;
57107;SDS011;42987;52.916;6.542;2022-12-07T07:34:17;10.40;;;1.85;;
57107;SDS011;42987;52.916;6.542;2022-12-07T07:36:43;10.27;;;2.22;;
57107;SDS011;42987;52.916;6.542;2022-12-07T07:39:09;15.05;;;2.67;;
57107;SDS011;42987;52.916;6.542;2022-12-07T07:41:37;12.48;;;3.10;;
57107;SDS011;42987;52.916;6.542;2022-12-07T07:44:03;13.93;;;2.00;;
57107;SDS011;42987;52.916;6.542;2022-12-07T07:46:29;12.48;;;2.20;;
57107;SDS011;42987;52.916;6.542;2022-12-07T07:48:56;13.13;;;2.85;;
57107;SDS011;42987;52.916;6.542;2022-12-07T07:51:22;14.20;;;2.30;;
57107;SDS011;42987;52.916;6.542;2022-12-07T07:53:47;14.27;;;2.70;;
57107;SDS011;42987;52.916;6.542;2022-12-07T07:56:13;12.30;;;2.60;;
57107;SDS011;42987;52.916;6.542;2022-12-07T07:58:39;12.73;;;2.40;;
57107;SDS011;42987;52.916;6.542;2022-12-07T08:01:05;13.73;;;2.20;;
57107;SDS011;42987;52.916;6.542;2022-12-07T08:03:32;12.77;;;2.55;;
57107;SDS011;42987;52.916;6.542;2022-12-07T08:06:01;10.65;;;2.30;;
57107;SDS011;42987;52.916;6.542;2022-12-07T08:08:30;10.43;;;2.47;;
57107;SDS011;42987;52.916;6.542;2022-12-07T08:10:56;15.50;;;2.28;;
57107;SDS011;42987;52.916;6.542;2022-12-07T08:13:25;9.43;;;2.00;;
57107;SDS011;42987;52.916;6.542;2022-12-07T08:15:51;8.73;;;2.22;;
57107;SDS011;42987;52.916;6.542;2022-12-07T08:18:16;10.37;;;1.80;;
57107;SDS011;42987;52.916;6.542;2022-12-07T08:20:42;14.48;;;2.42;;
57107;SDS011;42987;52.916;6.542;2022-12-07T08:23:09;11.03;;;2.40;;
57107;SDS011;42987;52.916;6.542;2022-12-07T08:25:36;12.68;;;2.50;;
57107;SDS011;42987;52.916;6.542;2022-12-07T08:28:02;14.48;;;3.40;;
57107;SDS011;42987;52.916;6.542;2022-12-07T08:30:31;12.15;;;2.70;;
57107;SDS011;42987;52.916;6.542;2022-12-07T08:32:57;7.53;;;1.70;;
57107;SDS011;42987;52.916;6.542;2022-12-07T08:35:26;11.75;;;2.08;;
57107;SDS011;42987;52.916;6.542;2022-12-07T08:37:52;12.48;;;2.63;;
57107;SDS011;42987;52.916;6.542;2022-12-07T08:40:18;10.65;;;2.40;;
57107;SDS011;42987;52.916;6.542;2022-12-07T08:42:50;11.07;;;2.15;;
57107;SDS011;42987;52.916;6.542;2022-12-07T08:45:17;11.27;;;2.42;;
57107;SDS011;42987;52.916;6.542;2022-12-07T08:47:55;13.43;;;2.20;;
57107;SDS011;42987;52.916;6.542;2022-12-07T08:50:35;12.68;;;2.60;;
57107;SDS011;42987;52.916;6.542;2022-12-07T08:53:03;8.88;;;2.08;;
57107;SDS011;42987;52.916;6.542;2022-12-07T08:55:30;17.40;;;3.28;;
57107;SDS011;42987;52.916;6.542;2022-12-07T08:57:57;10.45;;;2.40;;
57107;SDS011;42987;52.916;6.542;2022-12-07T09:00:27;14.93;;;3.80;;
57107;SDS011;42987;52.916;6.542;2022-12-07T09:02:53;12.50;;;2.97;;
57107;SDS011;42987;52.916;6.542;2022-12-07T09:05:19;11.27;;;2.63;;
57107;SDS011;42987;52.916;6.542;2022-12-07T09:07:46;11.70;;;2.42;;
57107;SDS011;42987;52.916;6.542;2022-12-07T09:10:15;14.68;;;2.47;;
57107;SDS011;42987;52.916;6.542;2022-12-07T09:12:42;11.93;;;2.55;;
57107;SDS011;42987;52.916;6.542;2022-12-07T09:15:07;13.73;;;3.17;;
57107;SDS011;42987;52.916;6.542;2022-12-07T09:17:34;17.13;;;3.08;;
57107;SDS011;42987;52.916;6.542;2022-12-07T09:20:00;17.73;;;3.25;;
57107;SDS011;42987;52.916;6.542;2022-12-07T09:22:30;11.57;;;2.38;;
57107;SDS011;42987;52.916;6.542;2022-12-07T09:24:59;14.75;;;3.00;;
57107;SDS011;42987;52.916;6.542;2022-12-07T09:27:25;11.70;;;3.40;;
57107;SDS011;42987;52.916;6.542;2022-12-07T09:29:52;11.45;;;3.08;;
57107;SDS011;42987;52.916;6.542;2022-12-07T09:32:18;10.15;;;2.90;;
57107;SDS011;42987;52.916;6.542;2022-12-07T09:34:44;12.45;;;2.72;;
57107;SDS011;42987;52.916;6.542;2022-12-07T09:37:09;10.25;;;3.15;;
57107;SDS011;42987;52.916;6.542;2022-12-07T09:39:39;9.45;;;2.50;;
57107;SDS011;42987;52.916;6.542;2022-12-07T09:42:05;12.40;;;2.88;;
57107;SDS011;42987;52.916;6.542;2022-12-07T09:44:32;12.00;;;3.15;;
57107;SDS011;42987;52.916;6.542;2022-12-07T09:47:00;10.10;;;3.20;;
57107;SDS011;42987;52.916;6.542;2022-12-07T09:49:28;11.80;;;2.60;;
57107;SDS011;42987;52.916;6.542;2022-12-07T09:52:00;15.25;;;3.10;;
57107;SDS011;42987;52.916;6.542;2022-12-07T09:54:33;16.92;;;3.47;;
57107;SDS011;42987;52.916;6.542;2022-12-07T09:57:07;13.93;;;2.92;;
57107;SDS011;42987;52.916;6.542;2022-12-07T09:59:39;17.65;;;2.75;;
57107;SDS011;42987;52.916;6.542;2022-12-07T10:04:52;14.18;;;2.60;;
57107;SDS011;42987;52.916;6.542;2022-12-07T10:07:19;11.23;;;2.58;;
57107;SDS011;42987;52.916;6.542;2022-12-07T10:09:44;10.80;;;2.83;;
57107;SDS011;42987;52.916;6.542;2022-12-07T10:12:11;10.38;;;2.75;;
57107;SDS011;42987;52.916;6.542;2022-12-07T10:14:38;10.65;;;2.30;;
57107;SDS011;42987;52.916;6.542;2022-12-07T10:17:40;9.93;;;2.42;;
57107;SDS011;42987;52.916;6.542;2022-12-07T10:20:13;11.73;;;2.85;;
57107;SDS011;42987;52.916;6.542;2022-12-07T10:22:53;12.68;;;2.17;;
57107;SDS011;42987;52.916;6.542;2022-12-07T10:25:21;9.02;;;2.10;;
57107;SDS011;42987;52.916;6.542;2022-12-07T10:28:01;11.82;;;2.00;;
57107;SDS011;42987;52.916;6.542;2022-12-07T10:30:33;9.32;;;2.00;;
57107;SDS011;42987;52.916;6.542;2022-12-07T10:33:29;10.13;;;2.38;;
57107;SDS011;42987;52.916;6.542;2022-12-07T10:35:55;5.90;;;2.25;;
57107;SDS011;42987;52.916;6.542;2022-12-07T10:38:22;9.00;;;2.10;;
57107;SDS011;42987;52.916;6.542;2022-12-07T10:40:52;9.75;;;2.35;;
57107;SDS011;42987;52.916;6.542;2022-12-07T10:43:31;9.57;;;2.03;;
57107;SDS011;42987;52.916;6.542;2022-12-07T10:48:42;10.18;;;2.50;;
57107;SDS011;42987;52.916;6.542;2022-12-07T11:02:31;9.30;;;1.88;;
57107;SDS011;42987;52.916;6.542;2022-12-07T11:07:55;11.13;;;2.00;;
57107;SDS011;42987;52.916;6.542;2022-12-07T11:19:22;8.95;;;1.50;;
57107;SDS011;42987;52.916;6.542;2022-12-07T11:21:57;8.93;;;2.00;;
57107;SDS011;42987;52.916;6.542;2022-12-07T11:27:35;7.32;;;1.60;;
57107;SDS011;42987;52.916;6.542;2022-12-07T11:32:51;9.35;;;2.60;;
57107;SDS011;42987;52.916;6.542;2022-12-07T11:35:34;9.80;;;1.92;;
57107;SDS011;42987;52.916;6.542;2022-12-07T11:38:21;9.10;;;1.98;;
57107;SDS011;42987;52.916;6.542;2022-12-07T11:40:53;9.52;;;2.03;;
57107;SDS011;42987;52.916;6.542;2022-12-07T11:43:37;11.15;;;2.17;;
57107;SDS011;42987;52.916;6.542;2022-12-07T11:46:19;9.10;;;1.90;;
57107;SDS011;42987;52.916;6.542;2022-12-07T11:48:51;10.77;;;2.33;;
57107;SDS011;42987;52.916;6.542;2022-12-07T11:51:36;8.27;;;2.17;;
57107;SDS011;42987;52.916;6.542;2022-12-07T11:57:02;10.30;;;2.45;;
57107;SDS011;42987;52.916;6.542;2022-12-07T11:59:42;11.27;;;2.10;;
57107;SDS011;42987;52.916;6.542;2022-12-07T12:02:16;8.32;;;1.75;;
57107;SDS011;42987;52.916;6.542;2022-12-07T12:05:12;6.85;;;2.17;;
57107;SDS011;42987;52.916;6.542;2022-12-07T12:07:39;8.27;;;1.90;;
57107;SDS011;42987;52.916;6.542;2022-12-07T12:10:17;8.43;;;1.90;;
57107;SDS011;42987;52.916;6.542;2022-12-07T12:20:55;9.13;;;2.05;;
57107;SDS011;42987;52.916;6.542;2022-12-07T12:23:23;10.15;;;1.95;;
57107;SDS011;42987;52.916;6.542;2022-12-07T12:25:54;11.65;;;2.22;;
57107;SDS011;42987;52.916;6.542;2022-12-07T12:28:30;11.20;;;2.00;;
57107;SDS011;42987;52.916;6.542;2022-12-07T12:34:02;7.95;;;1.77;;
57107;SDS011;42987;52.916;6.542;2022-12-07T12:36:47;9.18;;;2.30;;
57107;SDS011;42987;52.916;6.542;2022-12-07T12:39:14;7.95;;;1.98;;
57107;SDS011;42987;52.916;6.542;2022-12-07T12:51:58;9.07;;;2.25;;
57107;SDS011;42987;52.916;6.542;2022-12-07T12:54:41;7.18;;;1.30;;
57107;SDS011;42987;52.916;6.542;2022-12-07T12:57:29;8.55;;;1.80;;
57107;SDS011;42987;52.916;6.542;2022-12-07T12:59:57;7.30;;;1.20;;
57107;SDS011;42987;52.916;6.542;2022-12-07T13:02:33;5.57;;;1.08;;
57107;SDS011;42987;52.916;6.542;2022-12-07T13:10:31;5.80;;;0.80;;
57107;SDS011;42987;52.916;6.542;2022-12-07T13:23:40;4.22;;;0.65;;
57107;SDS011;42987;52.916;6.542;2022-12-07T13:34:34;4.03;;;1.00;;
57107;SDS011;42987;52.916;6.542;2022-12-07T13:37:01;3.45;;;0.82;;
57107;SDS011;42987;52.916;6.542;2022-12-07T13:39:35;4.15;;;0.77;;
57107;SDS011;42987;52.916;6.542;2022-12-07T13:42:19;2.78;;;0.80;;
57107;SDS011;42987;52.916;6.542;2022-12-07T13:44:47;4.68;;;1.42;;
57107;SDS011;42987;52.916;6.542;2022-12-07T13:47:17;5.75;;;1.20;;
57107;SDS011;42987;52.916;6.542;2022-12-07T13:49:51;2.22;;;0.60;;
57107;SDS011;42987;52.916;6.542;2022-12-07T13:52:20;3.22;;;0.60;;
57107;SDS011;42987;52.916;6.542;2022-12-07T13:54:49;3.47;;;0.68;;
57107;SDS011;42987;52.916;6.542;2022-12-07T13:57:27;3.45;;;0.65;;
57107;SDS011;42987;52.916;6.542;2022-12-07T13:59:55;5.53;;;0.85;;
57107;SDS011;42987;52.916;6.542;2022-12-07T14:02:32;5.70;;;0.90;;
57107;SDS011;42987;52.916;6.542;2022-12-07T14:05:07;4.38;;;0.60;;
57107;SDS011;42987;52.916;6.542;2022-12-07T14:10:23;4.47;;;0.70;;
57107;SDS011;42987;52.916;6.542;2022-12-07T14:12:54;3.78;;;0.70;;
57107;SDS011;42987;52.916;6.542;2022-12-07T14:15:21;3.47;;;0.70;;
57107;SDS011;42987;52.916;6.542;2022-12-07T14:17:59;4.90;;;0.70;;
57107;SDS011;42987;52.916;6.542;2022-12-07T14:20:33;5.57;;;0.90;;
57107;SDS011;42987;52.916;6.542;2022-12-07T14:23:04;5.38;;;1.00;;
57107;SDS011;42987;52.916;6.542;2022-12-07T14:25:49;4.03;;;0.90;;
57107;SDS011;42987;52.916;6.542;2022-12-07T14:30:53;6.38;;;0.80;;
57107;SDS011;42987;52.916;6.542;2022-12-07T14:33:19;6.43;;;1.02;;
57107;SDS011;42987;52.916;6.542;2022-12-07T14:35:47;4.53;;;0.80;;
57107;SDS011;42987;52.916;6.542;2022-12-07T14:38:12;6.00;;;1.20;;
57107;SDS011;42987;52.916;6.542;2022-12-07T14:40:38;4.47;;;0.88;;
57107;SDS011;42987;52.916;6.542;2022-12-07T14:43:05;5.80;;;0.85;;
57107;SDS011;42987;52.916;6.542;2022-12-07T14:45:36;6.35;;;1.13;;
57107;SDS011;42987;52.916;6.542;2022-12-07T14:48:02;5.38;;;1.10;;
57107;SDS011;42987;52.916;6.542;2022-12-07T14:50:28;5.00;;;1.02;;
57107;SDS011;42987;52.916;6.542;2022-12-07T14:53:06;6.43;;;1.50;;
57107;SDS011;42987;52.916;6.542;2022-12-07T14:55:40;4.95;;;1.00;;
57107;SDS011;42987;52.916;6.542;2022-12-07T14:58:07;4.00;;;0.82;;
57107;SDS011;42987;52.916;6.542;2022-12-07T15:00:39;6.55;;;1.20;;
57107;SDS011;42987;52.916;6.542;2022-12-07T15:03:04;7.32;;;1.70;;
57107;SDS011;42987;52.916;6.542;2022-12-07T15:05:30;6.13;;;1.00;;
57107;SDS011;42987;52.916;6.542;2022-12-07T15:07:56;6.45;;;0.90;;
57107;SDS011;42987;52.916;6.542;2022-12-07T15:10:26;5.85;;;0.90;;
57107;SDS011;42987;52.916;6.542;2022-12-07T15:12:56;6.80;;;1.42;;
57107;SDS011;42987;52.916;6.542;2022-12-07T15:15:43;5.25;;;0.98;;
57107;SDS011;42987;52.916;6.542;2022-12-07T15:18:09;4.22;;;0.98;;
57107;SDS011;42987;52.916;6.542;2022-12-07T15:20:35;5.22;;;1.10;;
57107;SDS011;42987;52.916;6.542;2022-12-07T15:23:01;5.38;;;1.13;;
57107;SDS011;42987;52.916;6.542;2022-12-07T15:25:26;6.63;;;1.30;;
57107;SDS011;42987;52.916;6.542;2022-12-07T15:27:52;6.30;;;1.08;;
57107;SDS011;42987;52.916;6.542;2022-12-07T15:30:18;6.25;;;1.95;;
57107;SDS011;42987;52.916;6.542;2022-12-07T15:32:44;5.78;;;1.20;;
57107;SDS011;42987;52.916;6.542;2022-12-07T15:35:13;6.75;;;1.58;;
57107;SDS011;42987;52.916;6.542;2022-12-07T15:37:39;6.70;;;1.20;;
57107;SDS011;42987;52.916;6.542;2022-12-07T15:40:05;7.35;;;1.10;;
57107;SDS011;42987;52.916;6.542;2022-12-07T15:42:32;7.93;;;1.30;;
57107;SDS011;42987;52.916;6.542;2022-12-07T15:44:57;8.00;;;1.60;;
57107;SDS011;42987;52.916;6.542;2022-12-07T15:47:33;7.70;;;1.65;;
57107;SDS011;42987;52.916;6.542;2022-12-07T15:50:04;4.63;;;1.00;;
57107;SDS011;42987;52.916;6.542;2022-12-07T15:52:33;7.15;;;1.20;;
57107;SDS011;42987;52.916;6.542;2022-12-07T15:54:59;6.72;;;1.35;;
57107;SDS011;42987;52.916;6.542;2022-12-07T15:57:25;7.18;;;1.52;;
57107;SDS011;42987;52.916;6.542;2022-12-07T15:59:51;7.40;;;1.40;;
57107;SDS011;42987;52.916;6.542;2022-12-07T16:02:18;6.07;;;0.93;;
57107;SDS011;42987;52.916;6.542;2022-12-07T16:04:44;6.85;;;1.35;;
57107;SDS011;42987;52.916;6.542;2022-12-07T16:07:10;5.38;;;1.38;;
57107;SDS011;42987;52.916;6.542;2022-12-07T16:09:37;7.32;;;1.98;;
57107;SDS011;42987;52.916;6.542;2022-12-07T16:12:03;7.72;;;2.00;;
57107;SDS011;42987;52.916;6.542;2022-12-07T16:14:29;6.93;;;1.35;;
57107;SDS011;42987;52.916;6.542;2022-12-07T16:16:57;6.70;;;1.77;;
57107;SDS011;42987;52.916;6.542;2022-12-07T16:19:22;9.32;;;2.55;;
57107;SDS011;42987;52.916;6.542;2022-12-07T16:21:48;6.68;;;1.40;;
57107;SDS011;42987;52.916;6.542;2022-12-07T16:24:14;5.13;;;1.30;;
57107;SDS011;42987;52.916;6.542;2022-12-07T16:26:41;5.93;;;1.38;;
57107;SDS011;42987;52.916;6.542;2022-12-07T16:29:09;5.10;;;0.90;;
57107;SDS011;42987;52.916;6.542;2022-12-07T16:31:38;4.22;;;0.95;;
57107;SDS011;42987;52.916;6.542;2022-12-07T16:34:05;8.07;;;1.02;;
57107;SDS011;42987;52.916;6.542;2022-12-07T16:36:31;6.55;;;0.93;;
57107;SDS011;42987;52.916;6.542;2022-12-07T16:38:58;3.72;;;0.98;;
57107;SDS011;42987;52.916;6.542;2022-12-07T16:41:24;3.70;;;0.80;;
57107;SDS011;42987;52.916;6.542;2022-12-07T16:43:50;6.07;;;0.80;;
57107;SDS011;42987;52.916;6.542;2022-12-07T16:46:16;4.80;;;0.80;;
57107;SDS011;42987;52.916;6.542;2022-12-07T16:48:42;4.57;;;0.73;;
57107;SDS011;42987;52.916;6.542;2022-12-07T16:51:09;6.05;;;1.13;;
57107;SDS011;42987;52.916;6.542;2022-12-07T16:53:36;1.67;;;0.50;;
57107;SDS011;42987;52.916;6.542;2022-12-07T16:56:03;4.80;;;0.70;;
57107;SDS011;42987;52.916;6.542;2022-12-07T16:58:30;4.07;;;0.73;;
57107;SDS011;42987;52.916;6.542;2022-12-07T17:00:56;3.45;;;0.98;;